Aérodrome :
LOGIN :

S'inscrire | Disclaimer

   EN    FR    IT 

 










Légende :    VFR   VFR Marginal   IFR   IFR Intensif   IFR Très Intensif
Visi : 
Plafond : 
>= 8 km
>= 3000ft
5 à 8 km
1000 à 3000 ft
1500m à 5 km
500 à 1000 ft
800 à 1500m
200 à 500 ft
< 800m
< 200 ft
Symboles :   Orages  Brouillard  Fortes neiges  Fortes précipitations  Vent > 20 kt
SIGMETs :   Divers  Orages  Givrage  Turbulence  Onde Orograph.  Cendres Volcan.







- Altitude de l'aérodrome : 870 ft
- Code IATA : ETZ
- Voir les cartes d'approche


LFJL - Metz Nancy Lorraine

DERNIER METAR :
  • 171900Z AUTO 11002KT 7000 FEW026 BKN033 BKN050 01/00 Q1023 TEMPO BKN013

METARs EXPIRÉS :
  • 171830Z AUTO 08003KT 7000 FEW028 BKN052 OVC066 02/01 Q1023 TEMPO BKN013
  • 171800Z AUTO 06005KT 8000 -RADZ BKN026 BKN050 OVC076 02/01 Q1022 TEMPO BKN013
  • 171730Z AUTO 05005KT 9000 FEW024 BKN048 OVC072 02/02 Q1022 TEMPO BKN013
  • 171700Z AUTO 05007KT 9999 SCT012 BKN017 BKN023 03/02 Q1021 NOSIG
  • 171630Z AUTO 03007KT 9999 FEW013 OVC043 03/01 Q1021 NOSIG

TAF TAF LFJL
Valide du 17 à 18h jusqu'au 18 à 18h UTC


171703Z 1718/1818 05006KT 8000 SCT015 SCT030
TEMPO 1718/1721 BKN013
BECMG 1721/1724 4000 BR BKN005
PROB30
TEMPO 1802/1809 0600 FZFG VV///
BECMG 1809/1812 9999 NSW FEW015
Pas de NOTAMs connus pour ce terrain.



MET'MAP, la Météo Aéronautique d'un coup d'oeil ! - Copyright ORBIFLY Décembre 2007 - Disclaimer

ORBIFLY MET'MAP TEAM :

Programmation & Développement : Alexandra Zaïnal
Conception & Développement : Baudouin d'Aumeries
Co-Programmation & Développement : Marc-Olivier Méhu
Soutien technique & logistique : Manuel Goepfert

Contact : metmap@orbifly.com




SOURCES & CREDITS :

   NOAA